Stradbroke Venture — 3823QD — position and weather

sailwx.info

Track history (hours):
 
Tides and Currents Weather Stations Pressure Air Temp Water Temp Dewpoint Dewpoint Depression Visibility Wind Speed Wind Dir Waves Ship Positions

Stradbroke Venture

Last reported at 2017-Oct-19 09:03 UTC. Time now 2017-Oct-19 11:13 UTC.
Position S 27°37' E 153°19'.

Length 54 m; draft 1.4 m.

Type: Other ship. MMSI: 503690000.

Date/timePositionNaut miles runAvg speedWind from/ knotsBaromVisibWave heightAir tempDewpointWater temp
2017-Oct-19 09:03S 27°37' E 153°19'0 0.0
2017-Oct-19 09:00S 27°37' E 153°19'0 0.0
2017-Oct-19 08:30S 27°37' E 153°19'1 2.1
2017-Oct-19 08:00S 27°38' E 153°20'3 6.6
2017-Oct-19 07:30S 27°38' E 153°23'0 0.1
2017-Oct-19 07:00S 27°38' E 153°23'2 4.9
2017-Oct-19 06:30S 27°38' E 153°21'2 4.4
2017-Oct-19 06:00S 27°37' E 153°19'2 4.3
2017-Oct-19 05:30S 27°38' E 153°20'3 5.4
2017-Oct-19 05:00S 27°38' E 153°24'1 2.4
2017-Oct-19 04:30S 27°38' E 153°22'2 4.4
2017-Oct-19 04:00S 27°38' E 153°20'1 2.6
2017-Oct-19 03:30S 27°37' E 153°19'3 5.7
2017-Oct-19 03:00S 27°38' E 153°22'1 2.6
2017-Oct-19 02:29S 27°39' E 153°23'1 2.5
2017-Oct-19 02:00S 27°38' E 153°22'2 5.0
2017-Oct-19 01:30S 27°37' E 153°19'1 1.3
2017-Oct-19 01:00S 27°37' E 153°19'2 4.3
2017-Oct-19 00:30S 27°38' E 153°20'2 4.1
2017-Oct-19 00:00S 27°38' E 153°23'0 0.5
2017-Oct-18 23:30S 27°38' E 153°23'2 3.7
2017-Oct-18 23:00S 27°39' E 153°21'3 5.5
2017-Oct-18 22:30S 27°37' E 153°19'3 5.4
2017-Oct-18 22:00S 27°39' E 153°21'2 4.8
2017-Oct-18 21:30S 27°38' E 153°24'0 0.3
2017-Oct-18 21:00S 27°38' E 153°23'2 4.9
2017-Oct-18 20:30S 27°39' E 153°21'3 5.2
2017-Oct-18 20:00S 27°37' E 153°19'0 0.0
2017-Oct-18 08:27S 27°37' E 153°19'1 3.3
2017-Oct-18 08:00S 27°38' E 153°20'3 5.7
2017-Oct-18 07:30S 27°38' E 153°23'0 0.9
2017-Oct-18 07:00S 27°38' E 153°23'2 4.4
2017-Oct-18 06:30S 27°38' E 153°20'2 3.5
2017-Oct-18 06:00S 27°37' E 153°19'3 5.5
2017-Oct-18 05:30S 27°39' E 153°21'2 4.0
2017-Oct-18 05:00S 27°38' E 153°23'1 2.1
2017-Oct-18 04:31S 27°38' E 153°22'2 4.3
2017-Oct-18 04:01S 27°38' E 153°20'1 2.7
2017-Oct-18 03:30S 27°37' E 153°19'3 6.2
2017-Oct-18 03:01S 27°38' E 153°22'1 2.3
2017-Oct-18 02:31S 27°39' E 153°23'1 2.3
2017-Oct-18 02:00S 27°38' E 153°22'2 4.2
2017-Oct-18 01:31S 27°38' E 153°20'1 2.3
2017-Oct-18 01:00S 27°37' E 153°19'2 4.9
2017-Oct-18 00:31S 27°39' E 153°21'2 3.6
2017-Oct-18 00:01S 27°38' E 153°23'0 0.1
2017-Oct-17 23:30S 27°38' E 153°23'2 3.6
2017-Oct-17 23:01S 27°39' E 153°21'3 5.3
2017-Oct-17 22:31S 27°37' E 153°19'2 4.5
2017-Oct-17 22:00S 27°38' E 153°21'3 5.0
2017-Oct-17 21:30S 27°38' E 153°23'1 1.3
2017-Oct-17 21:00S 27°39' E 153°23'2 3.4
2017-Oct-17 20:31S 27°39' E 153°21'3 5.6
2017-Oct-17 20:00S 27°37' E 153°19'0 0.0
2017-Oct-17 19:30S 27°37' E 153°19'0 0.0
2017-Oct-17 08:23S 27°37' E 153°19'1 3.4
2017-Oct-17 08:00S 27°38' E 153°20'3 6.8
2017-Oct-17 07:31S 27°38' E 153°24'1 2.9
2017-Oct-17 07:00S 27°38' E 153°22'1 2.6
2017-Oct-17 06:30S 27°39' E 153°21'2 4.7
2017-Oct-17 06:00S 27°37' E 153°19'3 6.0
2017-Oct-17 05:29S 27°38' E 153°22'1 2.4
2017-Oct-17 05:00S 27°39' E 153°23'2 3.2
2017-Oct-17 04:30S 27°39' E 153°21'3 5.1
2017-Oct-17 03:58S 27°37' E 153°19'3 6.1
2017-Oct-17 03:30S 27°39' E 153°21'2 4.6
2017-Oct-17 03:00S 27°38' E 153°24'0 0.5
2017-Oct-17 02:30S 27°38' E 153°23'2 3.6
2017-Oct-17 02:00S 27°38' E 153°21'3 5.2
2017-Oct-17 01:29S 27°37' E 153°19'0 0.3
2017-Oct-17 00:59S 27°37' E 153°19'3 5.8
2017-Oct-17 00:30S 27°38' E 153°21'2 3.6
2017-Oct-17 00:00S 27°38' E 153°23'0 0.4
2017-Oct-16 23:30S 27°38' E 153°23'2 4.8
2017-Oct-16 23:00S 27°39' E 153°21'3 5.1
2017-Oct-16 22:30S 27°37' E 153°19'2 4.2
2017-Oct-16 21:59S 27°38' E 153°20'2 4.9
2017-Oct-16 21:29S 27°38' E 153°23'0 0.1
2017-Oct-16 21:00S 27°38' E 153°23'2 3.9
2017-Oct-16 20:30S 27°39' E 153°21'3 5.5
2017-Oct-16 20:00S 27°37' E 153°19'0 0.0
2017-Oct-16 19:30S 27°37' E 153°19'0 0.0
2017-Oct-16 08:15S 27°37' E 153°19'1 3.6
2017-Oct-16 08:00S 27°37' E 153°19'3 6.8
2017-Oct-16 07:30S 27°38' E 153°23'0 0.4
2017-Oct-16 07:00S 27°38' E 153°23'2 4.9
2017-Oct-16 06:30S 27°39' E 153°21'2 4.8
2017-Oct-16 06:00S 27°37' E 153°19'2 4.2
2017-Oct-16 05:30S 27°38' E 153°20'3 5.6
2017-Oct-16 05:00S 27°38' E 153°24'1 1.2
2017-Oct-16 04:30S 27°38' E 153°23'2 4.7
2017-Oct-16 04:00S 27°38' E 153°20'2 3.9
2017-Oct-16 03:31S 27°37' E 153°19'3 5.5
2017-Oct-16 03:00S 27°39' E 153°21'2 4.1
2017-Oct-16 02:30S 27°38' E 153°23'0 0.3
2017-Oct-16 02:00S 27°38' E 153°23'2 4.6
2017-Oct-16 01:30S 27°38' E 153°21'2 4.6
2017-Oct-16 01:00S 27°37' E 153°19'3 5.6
2017-Oct-16 00:30S 27°39' E 153°21'2 4.5
2017-Oct-16 00:00S 27°38' E 153°24'0 0.4
2017-Oct-15 23:30S 27°38' E 153°23'2 4.7
2017-Oct-15 23:00S 27°39' E 153°21'1 0.6
2017-Oct-15 21:50S 27°38' E 153°21'2 4.8
2017-Oct-15 21:28S 27°38' E 153°23'0 0.7
2017-Oct-15 21:00S 27°38' E 153°23'2 4.2
2017-Oct-15 20:30S 27°39' E 153°21'3 5.2
2017-Oct-15 20:00S 27°37' E 153°19'  
2017-Oct-12 20:55S 27°38' E 153°23'3 5.5
2017-Oct-12 20:23S 27°38' E 153°20'2 4.2
2017-Oct-12 20:01S 27°37' E 153°19'  
2017-Oct-09 22:07S 27°38' E 153°20'1 5.6
2017-Oct-09 21:59S 27°39' E 153°21'  
Track history (hours):
 
Tides and Currents Weather Stations Pressure Air Temp Water Temp Dewpoint Dewpoint Depression Visibility Wind Speed Wind Dir Waves Ship Positions

Stradbroke Venture

Last reported at 2017-Oct-19 09:03 UTC. Time now 2017-Oct-19 11:13 UTC.
Position S 27°37' E 153°19'.

Length 54 m; draft 1.4 m.

Type: Other ship. MMSI: 503690000.

Date/timePositionNaut miles runAvg speedWind from/ knotsBaromVisibWave heightAir tempDewpointWater temp
2017-Oct-19 09:03S 27°37' E 153°19'0 0.0
2017-Oct-19 09:00S 27°37' E 153°19'0 0.0
2017-Oct-19 08:30S 27°37' E 153°19'1 2.1
2017-Oct-19 08:00S 27°38' E 153°20'3 6.6
2017-Oct-19 07:30S 27°38' E 153°23'0 0.1
2017-Oct-19 07:00S 27°38' E 153°23'2 4.9
2017-Oct-19 06:30S 27°38' E 153°21'2 4.4
2017-Oct-19 06:00S 27°37' E 153°19'2 4.3
2017-Oct-19 05:30S 27°38' E 153°20'3 5.4
2017-Oct-19 05:00S 27°38' E 153°24'1 2.4
2017-Oct-19 04:30S 27°38' E 153°22'2 4.4
2017-Oct-19 04:00S 27°38' E 153°20'1 2.6
2017-Oct-19 03:30S 27°37' E 153°19'3 5.7
2017-Oct-19 03:00S 27°38' E 153°22'1 2.6
2017-Oct-19 02:29S 27°39' E 153°23'1 2.5
2017-Oct-19 02:00S 27°38' E 153°22'2 5.0
2017-Oct-19 01:30S 27°37' E 153°19'1 1.3
2017-Oct-19 01:00S 27°37' E 153°19'2 4.3
2017-Oct-19 00:30S 27°38' E 153°20'2 4.1
2017-Oct-19 00:00S 27°38' E 153°23'0 0.5
2017-Oct-18 23:30S 27°38' E 153°23'2 3.7
2017-Oct-18 23:00S 27°39' E 153°21'3 5.5
2017-Oct-18 22:30S 27°37' E 153°19'3 5.4
2017-Oct-18 22:00S 27°39' E 153°21'2 4.8
2017-Oct-18 21:30S 27°38' E 153°24'0 0.3
2017-Oct-18 21:00S 27°38' E 153°23'2 4.9
2017-Oct-18 20:30S 27°39' E 153°21'3 5.2
2017-Oct-18 20:00S 27°37' E 153°19'0 0.0
2017-Oct-18 08:27S 27°37' E 153°19'1 3.3
2017-Oct-18 08:00S 27°38' E 153°20'3 5.7
2017-Oct-18 07:30S 27°38' E 153°23'0 0.9
2017-Oct-18 07:00S 27°38' E 153°23'2 4.4
2017-Oct-18 06:30S 27°38' E 153°20'2 3.5
2017-Oct-18 06:00S 27°37' E 153°19'3 5.5
2017-Oct-18 05:30S 27°39' E 153°21'2 4.0
2017-Oct-18 05:00S 27°38' E 153°23'1 2.1
2017-Oct-18 04:31S 27°38' E 153°22'2 4.3
2017-Oct-18 04:01S 27°38' E 153°20'1 2.7
2017-Oct-18 03:30S 27°37' E 153°19'3 6.2
2017-Oct-18 03:01S 27°38' E 153°22'1 2.3
2017-Oct-18 02:31S 27°39' E 153°23'1 2.3
2017-Oct-18 02:00S 27°38' E 153°22'2 4.2
2017-Oct-18 01:31S 27°38' E 153°20'1 2.3
2017-Oct-18 01:00S 27°37' E 153°19'2 4.9
2017-Oct-18 00:31S 27°39' E 153°21'2 3.6
2017-Oct-18 00:01S 27°38' E 153°23'0 0.1
2017-Oct-17 23:30S 27°38' E 153°23'2 3.6
2017-Oct-17 23:01S 27°39' E 153°21'3 5.3
2017-Oct-17 22:31S 27°37' E 153°19'2 4.5
2017-Oct-17 22:00S 27°38' E 153°21'3 5.0
2017-Oct-17 21:30S 27°38' E 153°23'1 1.3
2017-Oct-17 21:00S 27°39' E 153°23'2 3.4
2017-Oct-17 20:31S 27°39' E 153°21'3 5.6
2017-Oct-17 20:00S 27°37' E 153°19'0 0.0
2017-Oct-17 19:30S 27°37' E 153°19'0 0.0
2017-Oct-17 08:23S 27°37' E 153°19'1 3.4
2017-Oct-17 08:00S 27°38' E 153°20'3 6.8
2017-Oct-17 07:31S 27°38' E 153°24'1 2.9
2017-Oct-17 07:00S 27°38' E 153°22'1 2.6
2017-Oct-17 06:30S 27°39' E 153°21'2 4.7
2017-Oct-17 06:00S 27°37' E 153°19'3 6.0
2017-Oct-17 05:29S 27°38' E 153°22'1 2.4
2017-Oct-17 05:00S 27°39' E 153°23'2 3.2
2017-Oct-17 04:30S 27°39' E 153°21'3 5.1
2017-Oct-17 03:58S 27°37' E 153°19'3 6.1
2017-Oct-17 03:30S 27°39' E 153°21'2 4.6
2017-Oct-17 03:00S 27°38' E 153°24'0 0.5
2017-Oct-17 02:30S 27°38' E 153°23'2 3.6
2017-Oct-17 02:00S 27°38' E 153°21'3 5.2
2017-Oct-17 01:29S 27°37' E 153°19'0 0.3
2017-Oct-17 00:59S 27°37' E 153°19'3 5.8
2017-Oct-17 00:30S 27°38' E 153°21'2 3.6
2017-Oct-17 00:00S 27°38' E 153°23'0 0.4
2017-Oct-16 23:30S 27°38' E 153°23'2 4.8
2017-Oct-16 23:00S 27°39' E 153°21'3 5.1
2017-Oct-16 22:30S 27°37' E 153°19'2 4.2
2017-Oct-16 21:59S 27°38' E 153°20'2 4.9
2017-Oct-16 21:29S 27°38' E 153°23'0 0.1
2017-Oct-16 21:00S 27°38' E 153°23'2 3.9
2017-Oct-16 20:30S 27°39' E 153°21'3 5.5
2017-Oct-16 20:00S 27°37' E 153°19'0 0.0
2017-Oct-16 19:30S 27°37' E 153°19'0 0.0
2017-Oct-16 08:15S 27°37' E 153°19'1 3.6
2017-Oct-16 08:00S 27°37' E 153°19'3 6.8
2017-Oct-16 07:30S 27°38' E 153°23'0 0.4
2017-Oct-16 07:00S 27°38' E 153°23'2 4.9
2017-Oct-16 06:30S 27°39' E 153°21'2 4.8
2017-Oct-16 06:00S 27°37' E 153°19'2 4.2
2017-Oct-16 05:30S 27°38' E 153°20'3 5.6
2017-Oct-16 05:00S 27°38' E 153°24'1 1.2
2017-Oct-16 04:30S 27°38' E 153°23'2 4.7
2017-Oct-16 04:00S 27°38' E 153°20'2 3.9
2017-Oct-16 03:31S 27°37' E 153°19'3 5.5
2017-Oct-16 03:00S 27°39' E 153°21'2 4.1
2017-Oct-16 02:30S 27°38' E 153°23'0 0.3
2017-Oct-16 02:00S 27°38' E 153°23'2 4.6
2017-Oct-16 01:30S 27°38' E 153°21'2 4.6
2017-Oct-16 01:00S 27°37' E 153°19'3 5.6
2017-Oct-16 00:30S 27°39' E 153°21'2 4.5
2017-Oct-16 00:00S 27°38' E 153°24'0 0.4
2017-Oct-15 23:30S 27°38' E 153°23'2 4.7
2017-Oct-15 23:00S 27°39' E 153°21'1 0.6
2017-Oct-15 21:50S 27°38' E 153°21'2 4.8
2017-Oct-15 21:28S 27°38' E 153°23'0 0.7
2017-Oct-15 21:00S 27°38' E 153°23'2 4.2
2017-Oct-15 20:30S 27°39' E 153°21'3 5.2
2017-Oct-15 20:00S 27°37' E 153°19'  
2017-Oct-12 20:55S 27°38' E 153°23'3 5.5
2017-Oct-12 20:23S 27°38' E 153°20'2 4.2
2017-Oct-12 20:01S 27°37' E 153°19'  
2017-Oct-09 22:07S 27°38' E 153°20'1 5.6
2017-Oct-09 21:59S 27°39' E 153°21'  

Dump ship's entire track history